Time;durP1;ratioP1;P1;durP2;ratioP2;P2;SDS_P1;SDS_P2;PMS_P1;PMS_P2;Temp;Humidity;BMP_temperature;BMP_pressure;BME280_temperature;BME280_humidity;BME280_pressure;Samples;Min_cycle;Max_cycle;Signal;HPM_P1;HPM_P2
2022/03/14 00:00:19;;;;;;;3.65;3.10;;;;;;;3.43;53.09;100791.08;1747972;80;20948;-62
2022/03/14 00:02:47;;;;;;;5.10;3.52;;;;;;;3.45;53.13;100791.83;1752690;80;21435;-62
2022/03/14 00:05:16;;;;;;;5.15;3.62;;;;;;;3.45;53.14;100786.56;1756150;80;21211;-62
2022/03/14 00:07:47;;;;;;;4.50;3.50;;;;;;;3.46;53.15;100792.22;1743313;80;20950;-63
2022/03/14 00:10:16;;;;;;;3.20;2.72;;;;;;;3.47;53.19;100795.20;1748552;80;21308;-63
2022/03/14 00:12:48;;;;;;;3.70;3.27;;;;;;;3.48;53.12;100801.31;1744651;80;20909;-63
2022/03/14 00:15:15;;;;;;;4.50;3.00;;;;;;;3.47;53.13;100799.15;1746896;80;20922;-63
2022/03/14 00:17:47;;;;;;;4.50;3.60;;;;;;;3.50;53.05;100797.66;1747013;80;21210;-61
2022/03/14 00:20:15;;;;;;;4.72;3.37;;;;;;;3.54;53.02;100793.91;1756699;80;20888;-62
2022/03/14 00:22:45;;;;;;;3.50;2.98;;;;;;;3.61;52.89;100803.58;1751218;80;20876;-62
2022/03/14 00:25:12;;;;;;;4.12;3.62;;;;;;;3.63;52.81;100797.28;1763741;80;21551;-63
2022/03/14 00:27:39;;;;;;;4.92;3.70;;;;;;;3.66;52.69;100800.19;1747973;80;21077;-63
2022/03/14 00:30:10;;;;;;;4.37;3.67;;;;;;;3.67;52.56;100802.74;1761534;80;21422;-62
2022/03/14 00:32:39;;;;;;;4.90;4.12;;;;;;;3.66;52.49;100801.04;1763674;80;21529;-61
2022/03/14 00:35:08;;;;;;;5.75;4.50;;;;;;;3.67;52.38;100797.48;1761065;80;20905;-62
2022/03/14 00:37:36;;;;;;;5.92;4.17;;;;;;;3.67;52.26;100801.42;1738019;80;20915;-61
2022/03/14 00:40:07;;;;;;;6.62;3.92;;;;;;;3.69;52.18;100795.59;1736547;80;20980;-63
2022/03/14 00:42:38;;;;;;;5.17;3.92;;;;;;;3.71;52.16;100800.28;1743298;80;21612;-62
2022/03/14 00:45:07;;;;;;;5.67;3.90;;;;;;;3.74;52.08;100804.05;1761468;81;20848;-62
2022/03/14 00:47:34;;;;;;;3.77;3.42;;;;;;;3.79;51.97;100805.53;1760095;81;20951;-62
2022/03/14 00:50:02;;;;;;;5.33;4.15;;;;;;;3.87;51.83;100810.70;1763423;80;20908;-62
2022/03/14 00:52:29;;;;;;;4.08;3.67;;;;;;;3.93;51.62;100809.02;1739763;80;20925;-62
2022/03/14 00:54:56;;;;;;;5.75;3.35;;;;;;;3.98;51.44;100811.35;1736622;80;21263;-63
2022/03/14 00:57:24;;;;;;;5.05;3.80;;;;;;;3.99;51.39;100815.69;1740233;80;20949;-63
2022/03/14 00:59:51;;;;;;;6.87;4.92;;;;;;;3.99;51.42;100819.64;1746774;80;21538;-63
2022/03/14 01:02:18;;;;;;;7.37;5.95;;;;;;;3.99;51.49;100821.77;1748556;80;21452;-63
2022/03/14 01:04:45;;;;;;;9.70;7.62;;;;;;;3.99;51.49;100820.95;1759187;81;21407;-62
2022/03/14 01:07:13;;;;;;;9.18;7.28;;;;;;;4.01;51.48;100824.33;1758471;80;22261;-62
2022/03/14 01:09:40;;;;;;;8.05;6.42;;;;;;;4.00;51.59;100827.89;1754447;80;21512;-63
2022/03/14 01:12:09;;;;;;;6.00;5.08;;;;;;;3.97;51.68;100826.76;1759235;80;20991;-62
2022/03/14 01:14:38;;;;;;;5.72;4.42;;;;;;;3.95;51.76;100831.28;1773256;80;20995;-63
2022/03/14 01:17:05;;;;;;;5.15;4.60;;;;;;;3.92;51.83;100836.27;1750829;80;20932;-62
2022/03/14 01:19:34;;;;;;;7.15;4.70;;;;;;;3.91;51.93;100835.88;1743727;81;20948;-62
2022/03/14 01:22:02;;;;;;;6.75;4.15;;;;;;;3.91;52.01;100832.43;1744985;81;20975;-62
2022/03/14 01:24:31;;;;;;;4.40;4.00;;;;;;;3.93;51.97;100832.71;1751715;80;21092;-62
2022/03/14 01:26:58;;;;;;;4.67;4.00;;;;;;;3.93;52.06;100831.86;1749018;81;21001;-62
2022/03/14 01:29:26;;;;;;;4.87;4.03;;;;;;;3.94;52.13;100830.89;1722832;82;21518;-62
2022/03/14 01:31:55;;;;;;;4.28;3.85;;;;;;;3.93;52.19;100831.86;1749209;80;20996;-63
2022/03/14 01:34:22;;;;;;;5.10;4.03;;;;;;;3.94;52.22;100840.96;1735059;82;20977;-63
2022/03/14 01:36:49;;;;;;;5.17;3.98;;;;;;;3.95;52.22;100840.03;1742723;80;20986;-62
2022/03/14 01:39:16;;;;;;;4.45;3.40;;;;;;;3.96;52.19;100842.20;1750744;80;20949;-62
2022/03/14 01:41:43;;;;;;;4.42;4.03;;;;;;;3.98;52.08;100836.36;1749935;80;21061;-61
2022/03/14 01:44:11;;;;;;;5.20;4.25;;;;;;;3.97;52.09;100839.92;1752517;80;21256;-62
2022/03/14 01:46:39;;;;;;;4.53;3.95;;;;;;;3.98;52.12;100841.63;1744982;80;20971;-62
2022/03/14 01:49:06;;;;;;;4.28;3.65;;;;;;;4.01;52.12;100842.77;1756393;80;20951;-63
2022/03/14 01:51:36;;;;;;;6.58;4.15;;;;;;;4.01;52.11;100847.56;1762504;80;20905;-63
2022/03/14 01:54:03;;;;;;;4.55;4.00;;;;;;;4.03;52.03;100842.19;1753972;80;20997;-63
2022/03/14 01:56:30;;;;;;;5.15;3.85;;;;;;;4.02;52.01;100847.06;1745711;80;21541;-61
2022/03/14 01:58:57;;;;;;;7.28;4.50;;;;;;;4.02;52.02;100851.02;1747160;80;20996;-62
2022/03/14 02:01:24;;;;;;;6.50;4.55;;;;;;;4.00;52.02;100852.44;1748578;80;21448;-63
2022/03/14 02:03:52;;;;;;;4.83;3.85;;;;;;;4.02;51.96;100845.75;1754674;80;21049;-63
2022/03/14 02:06:19;;;;;;;5.22;4.08;;;;;;;4.00;51.84;100851.59;1768385;80;21053;-63
2022/03/14 02:08:46;;;;;;;5.53;4.40;;;;;;;4.00;51.73;100852.91;1743938;80;22245;-62
2022/03/14 02:11:15;;;;;;;4.97;4.47;;;;;;;3.98;51.68;100848.22;1748801;80;20990;-62
2022/03/14 02:13:43;;;;;;;4.95;3.92;;;;;;;3.99;51.67;100853.87;1732555;81;20865;-62
2022/03/14 02:16:12;;;;;;;5.15;3.92;;;;;;;3.97;51.64;100850.45;1745489;80;20866;-62
2022/03/14 02:18:39;;;;;;;5.35;3.85;;;;;;;3.94;51.70;100854.59;1744227;80;21549;-62
2022/03/14 02:21:08;;;;;;;4.97;4.00;;;;;;;3.92;51.78;100855.16;1746878;80;22169;-62
2022/03/14 02:23:35;;;;;;;4.97;4.33;;;;;;;3.93;51.84;100856.88;1741648;80;20848;-62
2022/03/14 02:26:03;;;;;;;4.72;4.12;;;;;;;3.90;51.92;100858.38;1747409;80;20979;-61
2022/03/14 02:28:31;;;;;;;4.83;4.17;;;;;;;3.91;52.01;100854.81;1747486;80;21067;-62
2022/03/14 02:31:04;;;;;;;5.40;4.70;;;;;;;3.94;52.02;100863.34;1744959;80;21078;-62
2022/03/14 02:33:32;;;;;;;5.17;4.33;;;;;;;3.95;52.00;100866.36;1756900;80;21153;-62
2022/03/14 02:35:59;;;;;;;5.42;3.60;;;;;;;3.95;51.98;100864.20;1771531;80;21058;-61
2022/03/14 02:38:26;;;;;;;5.53;4.20;;;;;;;3.93;51.92;100864.30;1766041;80;21508;-62
2022/03/14 02:40:54;;;;;;;4.80;4.30;;;;;;;3.96;51.84;100864.59;1745421;80;21478;-62
2022/03/14 02:43:24;;;;;;;4.87;4.03;;;;;;;3.97;51.80;100863.63;1749411;80;21466;-63
2022/03/14 02:45:52;;;;;;;5.70;4.50;;;;;;;3.93;51.82;100867.41;1758242;80;21982;-61
2022/03/14 02:48:23;;;;;;;6.90;5.50;;;;;;;3.92;51.83;100863.92;1744847;80;20977;-63
2022/03/14 02:50:53;;;;;;;7.03;5.28;;;;;;;3.91;51.78;100858.27;1752834;80;20897;-62
2022/03/14 02:53:20;;;;;;;5.78;4.28;;;;;;;3.87;51.84;100860.73;1763395;80;20983;-62
2022/03/14 02:55:47;;;;;;;4.60;4.12;;;;;;;3.87;51.88;100861.19;1771170;80;20856;-61
2022/03/14 02:58:15;;;;;;;5.85;4.20;;;;;;;3.83;52.02;100860.55;1746839;80;21260;-62
2022/03/14 03:00:43;;;;;;;4.70;4.08;;;;;;;3.84;52.11;100858.73;1744788;80;20984;-63
2022/03/14 03:03:12;;;;;;;5.65;4.80;;;;;;;3.82;52.17;100858.84;1745226;80;20933;-62
2022/03/14 03:05:43;;;;;;;4.45;4.03;;;;;;;3.84;52.13;100856.11;1750586;80;20982;-62
2022/03/14 03:08:08;;;;;;;6.65;4.60;;;;;;;3.83;52.12;100859.23;1762376;80;20908;-62
2022/03/14 03:10:35;;;;;;;5.05;4.30;;;;;;;3.83;52.13;100857.06;1748998;80;21241;-62
2022/03/14 03:13:04;;;;;;;5.33;4.47;;;;;;;3.83;52.14;100859.23;1759064;80;20905;-61
2022/03/14 03:15:32;;;;;;;5.35;4.72;;;;;;;3.85;52.20;100863.08;1759695;80;21034;-62
2022/03/14 03:17:59;;;;;;;5.28;4.35;;;;;;;3.88;52.17;100864.20;1762501;80;21473;-62
2022/03/14 03:20:26;;;;;;;5.62;4.90;;;;;;;3.92;52.09;100857.80;1756625;80;21046;-62
2022/03/14 03:22:54;;;;;;;6.10;4.92;;;;;;;3.94;52.04;100865.98;1746892;80;21178;-62
2022/03/14 03:25:21;;;;;;;5.37;4.70;;;;;;;3.95;52.00;100866.83;1746581;80;20988;-64
2022/03/14 03:27:50;;;;;;;5.47;4.67;;;;;;;3.93;52.00;100866.94;1744182;80;20901;-62
2022/03/14 03:30:17;;;;;;;5.75;4.67;;;;;;;3.91;51.94;100864.03;1747321;80;20986;-63
2022/03/14 03:32:44;;;;;;;6.35;5.05;;;;;;;3.90;51.99;100866.27;1741996;80;20867;-62
2022/03/14 03:35:11;;;;;;;6.08;5.20;;;;;;;3.90;51.97;100870.22;1766344;80;21259;-62
2022/03/14 03:37:41;;;;;;;4.95;4.03;;;;;;;3.88;52.01;100866.84;1747241;80;20937;-62
2022/03/14 03:40:10;;;;;;;6.12;4.42;;;;;;;3.87;52.06;100871.25;1753289;80;20939;-62
2022/03/14 03:42:37;;;;;;;6.97;4.58;;;;;;;3.88;52.07;100879.55;1695155;83;20957;-62
2022/03/14 03:45:08;;;;;;;5.95;4.22;;;;;;;3.90;52.07;100882.06;1748781;80;20878;-61
2022/03/14 03:47:37;;;;;;;9.15;4.30;;;;;;;3.90;52.08;100875.02;1742373;80;21638;-61
2022/03/14 03:50:06;;;;;;;6.35;4.65;;;;;;;3.89;52.10;100873.31;1736259;82;21459;-62
2022/03/14 03:52:33;;;;;;;6.05;4.67;;;;;;;3.90;52.02;100882.06;1749603;81;20974;-63
2022/03/14 03:55:00;;;;;;;8.03;5.22;;;;;;;3.90;51.91;100879.44;1736467;81;20949;-62
2022/03/14 03:57:27;;;;;;;5.83;4.85;;;;;;;3.91;51.73;100879.82;1747990;80;20943;-62
2022/03/14 03:59:55;;;;;;;6.15;5.12;;;;;;;3.90;51.53;100880.28;1753417;80;21365;-62
2022/03/14 04:02:22;;;;;;;4.83;4.33;;;;;;;3.92;51.48;100879.72;1750934;80;20955;-62
2022/03/14 04:04:50;;;;;;;5.92;4.58;;;;;;;3.91;51.40;100878.51;1743685;80;20976;-63
2022/03/14 04:07:19;;;;;;;5.42;4.75;;;;;;;3.91;51.38;100879.82;1772025;80;20979;-62
2022/03/14 04:09:47;;;;;;;6.05;4.67;;;;;;;3.90;51.35;100882.92;1743753;80;21477;-62
2022/03/14 04:12:15;;;;;;;5.40;4.45;;;;;;;3.92;51.25;100884.13;1756756;80;20911;-62
2022/03/14 04:14:44;;;;;;;7.20;5.22;;;;;;;3.91;51.34;100889.04;1752354;80;20981;-61
2022/03/14 04:17:13;;;;;;;5.67;4.65;;;;;;;3.93;51.39;100893.73;1754030;80;21035;-62
2022/03/14 04:19:41;;;;;;;6.05;4.78;;;;;;;3.94;51.37;100889.67;1731119;80;21078;-62
2022/03/14 04:22:09;;;;;;;6.72;4.92;;;;;;;3.95;51.32;100886.11;1743288;81;21482;-62
2022/03/14 04:24:37;;;;;;;6.05;4.60;;;;;;;3.96;51.34;100890.45;1737721;80;21237;-63
2022/03/14 04:27:06;;;;;;;6.25;5.15;;;;;;;3.98;51.19;100891.20;1760314;80;21494;-63
2022/03/14 04:29:34;;;;;;;10.00;5.12;;;;;;;3.98;50.99;100896.47;1755430;80;20994;-62
2022/03/14 04:32:01;;;;;;;6.58;5.40;;;;;;;3.97;50.92;100893.91;1757140;80;21027;-63
2022/03/14 04:34:29;;;;;;;7.15;5.30;;;;;;;3.97;50.80;100896.53;1753067;80;21018;-63
2022/03/14 04:36:57;;;;;;;6.05;5.03;;;;;;;3.95;50.77;100903.69;1720974;82;21260;-62
2022/03/14 04:39:25;;;;;;;6.05;5.22;;;;;;;3.93;50.77;100905.12;1755506;80;20915;-62
2022/03/14 04:41:53;;;;;;;6.05;5.10;;;;;;;3.93;50.87;100905.58;1732517;82;21530;-62
2022/03/14 04:44:21;;;;;;;6.28;4.87;;;;;;;3.93;50.90;100903.80;1749382;80;20896;-62
2022/03/14 04:46:48;;;;;;;8.80;5.87;;;;;;;3.92;50.94;100906.51;1752026;80;20891;-62
2022/03/14 04:49:15;;;;;;;11.25;7.10;;;;;;;3.91;50.98;100908.29;1763715;80;21247;-62
2022/03/14 04:51:43;;;;;;;10.03;6.47;;;;;;;3.90;50.98;100912.34;1753221;80;20995;-61
2022/03/14 04:54:11;;;;;;;9.43;7.17;;;;;;;3.88;50.96;100919.50;1739484;81;21113;-63
2022/03/14 04:56:44;;;;;;;8.80;6.75;;;;;;;3.86;51.07;100922.70;1697552;82;21016;-62
2022/03/14 04:59:11;;;;;;;9.63;6.40;;;;;;;3.88;51.11;100913.77;1754977;80;20989;-62
2022/03/14 05:01:39;;;;;;;8.50;6.17;;;;;;;3.91;51.09;100918.82;1704626;83;21303;-61
2022/03/14 05:04:07;;;;;;;7.05;5.90;;;;;;;3.96;51.03;100919.41;1763877;80;20915;-62
2022/03/14 05:06:34;;;;;;;6.37;5.37;;;;;;;4.00;50.95;100922.69;1759119;80;21579;-62
2022/03/14 05:09:01;;;;;;;9.30;4.90;;;;;;;4.02;50.87;100924.75;1758828;80;21465;-62
2022/03/14 05:11:30;;;;;;;8.65;5.95;;;;;;;4.02;50.80;100919.48;1763817;80;20986;-62
2022/03/14 05:13:57;;;;;;;7.47;5.22;;;;;;;4.05;50.73;100927.20;1771475;80;21552;-61
2022/03/14 05:16:25;;;;;;;8.08;5.70;;;;;;;4.07;50.67;100921.36;1758857;80;21573;-62
2022/03/14 05:18:54;;;;;;;6.25;5.28;;;;;;;4.10;50.65;100926.45;1749349;80;20884;-62
2022/03/14 05:21:21;;;;;;;7.28;6.08;;;;;;;4.13;50.56;100929.75;1750940;80;20971;-62
2022/03/14 05:23:48;;;;;;;7.40;5.80;;;;;;;4.15;50.42;100919.95;1746844;80;21062;-61
2022/03/14 05:26:15;;;;;;;8.78;4.92;;;;;;;4.17;50.32;100931.73;1744806;80;21324;-63
2022/03/14 05:28:43;;;;;;;5.83;5.22;;;;;;;4.19;50.27;100928.53;1745698;80;22004;-62
2022/03/14 05:31:10;;;;;;;7.50;5.65;;;;;;;4.23;50.23;100929.55;1748491;80;21580;-62
2022/03/14 05:33:38;;;;;;;6.12;5.50;;;;;;;4.23;50.21;100933.50;1747125;80;20974;-63
2022/03/14 05:36:06;;;;;;;6.60;5.70;;;;;;;4.23;50.05;100941.87;1745150;80;20893;-63
2022/03/14 05:38:34;;;;;;;7.42;5.67;;;;;;;4.21;50.02;100939.81;1758749;80;21267;-61
2022/03/14 05:41:01;;;;;;;11.90;5.22;;;;;;;4.23;49.93;100947.99;1747014;80;20943;-62
2022/03/14 05:43:36;;;;;;;5.97;5.12;;;;;;;4.27;49.87;100940.29;1745815;80;20991;-62
2022/03/14 05:45:57;;;;;;;7.08;5.03;;;;;;;4.31;49.91;100943.56;1742321;80;20957;-62
2022/03/14 05:48:24;;;;;;;5.22;4.72;;;;;;;4.37;49.94;100951.09;1748495;80;21050;-62
2022/03/14 05:50:52;;;;;;;8.13;5.37;;;;;;;4.40;49.85;100953.55;1746090;80;21277;-62
2022/03/14 05:53:20;;;;;;;5.70;5.12;;;;;;;4.41;49.79;100955.72;1749021;80;20968;-62
2022/03/14 05:55:47;;;;;;;6.15;5.17;;;;;;;4.42;49.65;100955.60;1751794;80;20987;-64
2022/03/14 05:58:14;;;;;;;6.05;5.45;;;;;;;4.47;49.51;100959.27;1770689;80;20919;-62
2022/03/14 06:00:42;;;;;;;6.80;5.50;;;;;;;4.50;49.38;100960.39;1756412;80;21081;-61
2022/03/14 06:03:10;;;;;;;5.72;5.12;;;;;;;4.53;49.21;100961.06;1705376;82;21275;-62
2022/03/14 06:05:37;;;;;;;7.45;5.95;;;;;;;4.59;49.04;100959.33;1697490;83;21056;-62
2022/03/14 06:08:05;;;;;;;6.78;6.10;;;;;;;4.65;48.67;100960.73;1685043;83;20972;-62
2022/03/14 06:10:33;;;;;;;5.40;4.90;;;;;;;4.68;48.40;100961.41;1757462;80;20946;-63
2022/03/14 06:13:00;;;;;;;5.45;4.90;;;;;;;4.74;48.01;100957.53;1754971;80;20984;-61
2022/03/14 06:15:27;;;;;;;6.42;4.87;;;;;;;4.78;47.51;100962.50;1748410;80;21264;-63
2022/03/14 06:17:54;;;;;;;6.03;4.95;;;;;;;4.86;47.22;100956.73;1754872;80;21587;-63
2022/03/14 06:20:22;;;;;;;7.17;5.90;;;;;;;4.93;47.07;100958.87;1752547;80;21094;-64
2022/03/14 06:22:49;;;;;;;5.03;4.53;;;;;;;5.03;46.94;100958.30;1737401;80;21014;-63
2022/03/14 06:25:17;;;;;;;4.55;4.15;;;;;;;5.10;46.59;100958.27;1759494;80;20888;-64
2022/03/14 06:27:45;;;;;;;4.95;4.30;;;;;;;5.18;46.37;100963.42;1737447;80;21327;-63
2022/03/14 06:30:13;;;;;;;4.50;3.70;;;;;;;5.27;45.78;100960.62;1735487;80;20890;-63
2022/03/14 06:32:41;;;;;;;6.83;3.67;;;;;;;5.32;45.07;100960.70;1734623;80;21021;-64
2022/03/14 06:35:13;;;;;;;5.00;3.72;;;;;;;5.38;45.03;100958.98;1735060;80;20954;-63
2022/03/14 06:37:41;;;;;;;6.47;3.92;;;;;;;5.45;44.38;100964.23;1737118;80;21066;-63
2022/03/14 06:40:08;;;;;;;4.37;3.98;;;;;;;5.51;43.91;100964.30;1750110;80;21287;-63
2022/03/14 06:42:41;;;;;;;4.37;3.80;;;;;;;5.57;43.89;100972.67;1751573;81;20935;-64
2022/03/14 06:45:06;;;;;;;4.60;3.98;;;;;;;5.66;43.98;100970.36;1727082;81;21455;-61
2022/03/14 06:47:34;;;;;;;6.67;3.85;;;;;;;5.78;43.68;100977.45;1730551;81;20983;-63
2022/03/14 06:50:01;;;;;;;4.75;4.25;;;;;;;5.87;42.84;100971.55;1730699;81;21494;-63
2022/03/14 06:52:28;;;;;;;6.00;5.05;;;;;;;5.93;42.78;100968.50;1722995;81;21498;-63
2022/03/14 06:54:56;;;;;;;5.65;4.10;;;;;;;6.05;42.71;100972.47;1739549;81;21506;-61
2022/03/14 06:57:23;;;;;;;5.17;3.65;;;;;;;6.17;42.47;100972.96;1671779;84;21013;-62
2022/03/14 06:59:50;;;;;;;4.42;3.92;;;;;;;6.25;42.29;100973.75;1700573;83;21034;-62
2022/03/14 07:02:17;;;;;;;4.67;3.98;;;;;;;6.33;41.67;100979.34;1690762;83;20864;-64
2022/03/14 07:04:44;;;;;;;5.83;4.10;;;;;;;6.36;41.00;100975.14;1675755;83;21204;-62
2022/03/14 07:07:13;;;;;;;6.47;3.95;;;;;;;6.40;41.10;100979.28;1679613;84;20995;-62
2022/03/14 07:09:40;;;;;;;6.67;4.03;;;;;;;6.48;40.75;100976.94;1685156;83;21057;-62
2022/03/14 07:12:11;;;;;;;6.60;4.47;;;;;;;6.54;40.34;100984.92;1677144;83;20977;-63
2022/03/14 07:14:39;;;;;;;6.10;4.67;;;;;;;6.59;40.52;100982.80;1675399;83;20977;-63
2022/03/14 07:17:07;;;;;;;7.78;4.37;;;;;;;6.74;40.41;100979.91;1678284;84;21879;-63
2022/03/14 07:19:34;;;;;;;4.92;4.33;;;;;;;6.96;40.13;100983.15;1681077;83;20979;-63
2022/03/14 07:22:03;;;;;;;4.75;3.80;;;;;;;7.21;39.90;100982.22;1694611;83;21570;-62
2022/03/14 07:24:31;;;;;;;4.55;3.87;;;;;;;7.50;39.45;100980.91;1696248;84;21042;-62
2022/03/14 07:26:59;;;;;;;7.47;4.22;;;;;;;8.01;38.86;100981.41;1681387;83;20921;-63
2022/03/14 07:29:27;;;;;;;4.40;3.80;;;;;;;8.42;38.64;100976.41;1698862;84;21263;-62
2022/03/14 07:31:54;;;;;;;9.05;5.33;;;;;;;8.82;37.97;100982.06;1680397;84;20955;-64
2022/03/14 07:34:21;;;;;;;6.08;4.25;;;;;;;9.13;37.06;100983.92;1705795;83;21600;-62
2022/03/14 07:36:48;;;;;;;5.62;4.45;;;;;;;9.33;36.39;100983.64;1741347;81;21497;-63
2022/03/14 07:39:15;;;;;;;7.28;5.40;;;;;;;9.44;35.74;100980.92;1746025;80;20960;-64
2022/03/14 07:41:43;;;;;;;5.55;4.42;;;;;;;9.40;35.63;100980.83;1743855;80;21244;-62
2022/03/14 07:44:10;;;;;;;5.42;4.87;;;;;;;9.46;35.47;100978.16;1754561;80;21018;-63
2022/03/14 07:46:38;;;;;;;8.03;4.62;;;;;;;9.49;35.26;100977.91;1733909;80;21062;-63
2022/03/14 07:49:05;;;;;;;4.58;4.10;;;;;;;9.55;35.14;100981.36;1744088;80;20976;-63
2022/03/14 07:51:34;;;;;;;5.37;4.33;;;;;;;9.61;35.04;100979.53;1735383;80;20888;-63
2022/03/14 07:54:02;;;;;;;7.62;5.17;;;;;;;9.75;34.76;100981.38;1733553;81;21913;-61
2022/03/14 07:56:29;;;;;;;6.12;4.97;;;;;;;9.90;34.41;100981.44;1734049;81;20945;-62
2022/03/14 07:58:57;;;;;;;5.53;4.92;;;;;;;10.32;33.99;100978.77;1748665;80;21058;-62
2022/03/14 08:01:25;;;;;;;5.28;4.75;;;;;;;10.98;33.27;100979.97;1682366;83;21058;-63
2022/03/14 08:03:52;;;;;;;5.45;4.37;;;;;;;11.29;32.95;100978.09;1745019;81;21051;-63
2022/03/14 08:06:22;;;;;;;4.37;3.98;;;;;;;11.96;32.25;100970.93;1740096;80;21161;-63
2022/03/14 08:08:50;;;;;;;6.33;5.05;;;;;;;12.88;31.13;100962.48;1732259;81;21000;-63
2022/03/14 08:11:20;;;;;;;5.58;4.60;;;;;;;13.55;30.32;100970.92;1749344;80;20912;-63
2022/03/14 08:13:49;;;;;;;5.20;4.70;;;;;;;14.26;29.66;100968.09;1751560;80;21469;-63
2022/03/14 08:16:16;;;;;;;5.10;4.33;;;;;;;14.94;28.43;100968.95;1719980;80;20890;-63
2022/03/14 08:18:45;;;;;;;5.10;3.98;;;;;;;15.72;27.24;100971.63;1726617;81;21238;-64
2022/03/14 08:21:12;;;;;;;4.35;3.95;;;;;;;16.17;25.90;100970.25;1727130;80;21038;-63
2022/03/14 08:23:40;;;;;;;5.17;4.25;;;;;;;16.44;25.57;100969.88;1719937;82;21064;-62
2022/03/14 08:26:08;;;;;;;5.05;4.55;;;;;;;16.69;25.08;100971.48;1736428;80;21421;-65
2022/03/14 08:28:36;;;;;;;8.05;4.80;;;;;;;16.88;24.62;100965.70;1730212;81;20900;-64
2022/03/14 08:31:03;;;;;;;5.53;4.83;;;;;;;17.09;24.13;100968.63;1714451;81;21165;-64
2022/03/14 08:33:31;;;;;;;5.75;5.15;;;;;;;17.27;24.23;100965.66;1744448;81;21057;-64
2022/03/14 08:36:00;;;;;;;5.95;4.67;;;;;;;17.48;23.72;100962.32;1719762;82;21010;-65
2022/03/14 08:38:27;;;;;;;5.03;4.53;;;;;;;17.72;23.47;100956.79;1731186;81;21054;-62
2022/03/14 08:40:55;;;;;;;7.55;4.95;;;;;;;17.95;23.13;100957.59;1722182;80;20855;-60
2022/03/14 08:43:22;;;;;;;5.37;4.87;;;;;;;18.07;23.04;100960.70;1732104;82;21349;-62
2022/03/14 08:45:49;;;;;;;4.67;4.28;;;;;;;18.31;22.82;100957.23;1724273;81;21992;-61
2022/03/14 08:48:18;;;;;;;4.70;4.30;;;;;;;18.56;22.44;100964.58;1732643;80;20923;-63
2022/03/14 08:50:45;;;;;;;7.17;5.10;;;;;;;18.64;22.03;100952.86;1730967;81;21025;-64
2022/03/14 08:53:12;;;;;;;6.08;5.47;;;;;;;18.74;21.88;100951.55;1744210;81;20896;-64
2022/03/14 08:55:40;;;;;;;5.47;4.75;;;;;;;18.98;21.50;100949.05;1719508;81;21255;-63
2022/03/14 08:58:07;;;;;;;8.55;4.17;;;;;;;19.09;21.40;100954.77;1732296;80;21502;-62
2022/03/14 09:00:35;;;;;;;5.62;4.35;;;;;;;19.16;21.39;100952.16;1731977;81;20932;-64
2022/03/14 09:03:02;;;;;;;4.87;4.35;;;;;;;19.32;21.18;100955.14;1723621;81;20906;-64
2022/03/14 09:05:29;;;;;;;5.08;4.00;;;;;;;19.62;20.96;100954.02;1736867;80;21096;-63
2022/03/14 09:07:57;;;;;;;4.78;4.10;;;;;;;19.96;20.46;100956.81;1739723;80;21249;-64
2022/03/14 09:10:24;;;;;;;8.38;5.10;;;;;;;20.17;19.92;100958.12;1735543;82;20886;-64
2022/03/14 09:12:51;;;;;;;4.20;3.80;;;;;;;20.21;19.91;100955.33;1731629;82;20992;-63
2022/03/14 09:15:19;;;;;;;7.97;5.00;;;;;;;20.25;19.99;100955.30;1733364;82;20984;-63
2022/03/14 09:17:54;;;;;;;5.30;4.80;;;;;;;20.35;19.84;100955.45;1737583;82;20952;-63
2022/03/14 09:20:21;;;;;;;5.40;4.87;;;;;;;20.49;19.57;100940.45;1698361;82;21890;-63
2022/03/14 09:22:48;;;;;;;6.15;4.80;;;;;;;20.64;19.41;100950.64;1710945;82;21454;-63
2022/03/14 09:25:16;;;;;;;4.97;4.47;;;;;;;20.68;19.35;100957.31;1701833;82;21467;-63
2022/03/14 09:27:43;;;;;;;5.50;4.90;;;;;;;20.73;19.17;100943.17;1705158;83;21064;-63
2022/03/14 09:30:12;;;;;;;8.35;5.22;;;;;;;20.79;19.26;100936.46;1696781;83;21590;-61
2022/03/14 09:32:40;;;;;;;5.83;4.78;;;;;;;20.98;19.01;100932.69;1699128;82;21580;-66
2022/03/14 09:35:09;;;;;;;6.42;5.87;;;;;;;21.09;18.86;100932.14;1696339;82;21410;-65
2022/03/14 09:37:38;;;;;;;6.00;5.50;;;;;;;21.09;18.84;100933.48;1702585;83;21071;-66
2022/03/14 09:40:12;;;;;;;5.75;5.12;;;;;;;21.21;18.71;100930.49;1698181;82;21078;-64
2022/03/14 09:42:42;;;;;;;8.98;5.65;;;;;;;21.37;18.53;100932.83;1696236;83;20959;-66
2022/03/14 09:45:11;;;;;;;5.87;4.92;;;;;;;21.49;18.51;100929.81;1700505;82;21277;-66
2022/03/14 09:47:47;;;;;;;7.05;5.28;;;;;;;21.61;18.37;100936.82;1699266;83;21013;-65
2022/03/14 09:50:25;;;;;;;8.43;5.30;;;;;;;21.71;18.16;100931.82;1708194;82;20901;-64
2022/03/14 09:52:55;;;;;;;5.75;5.05;;;;;;;21.70;17.88;100935.56;1699981;83;21489;-65
2022/03/14 09:55:22;;;;;;;6.40;5.20;;;;;;;21.59;17.66;100930.23;1701952;82;21075;-65
2022/03/14 09:57:51;;;;;;;6.00;5.05;;;;;;;21.17;17.95;100935.47;1720597;82;21030;-65
2022/03/14 10:00:19;;;;;;;6.00;5.40;;;;;;;20.84;18.31;100935.34;1718737;82;20936;-65
2022/03/14 10:02:46;;;;;;;5.03;4.53;;;;;;;20.72;18.41;100939.66;1700727;83;21015;-65
2022/03/14 10:05:15;;;;;;;6.47;5.12;;;;;;;20.59;18.32;100940.11;1697676;82;20912;-64
2022/03/14 10:07:46;;;;;;;6.05;5.45;;;;;;;20.38;18.58;100936.14;1699255;82;20965;-66
2022/03/14 10:10:14;;;;;;;13.20;5.25;;;;;;;20.27;18.67;100941.58;1705720;83;21279;-67
2022/03/14 10:12:43;;;;;;;9.43;5.67;;;;;;;20.26;18.68;100938.55;1699134;83;21456;-66
2022/03/14 10:15:11;;;;;;;5.67;5.05;;;;;;;20.17;18.65;100935.16;1702678;82;21018;-65
2022/03/14 10:17:38;;;;;;;6.08;5.47;;;;;;;19.50;19.07;100930.73;1698997;83;21028;-65
2022/03/14 10:20:08;;;;;;;5.83;5.30;;;;;;;18.98;19.57;100925.59;1733372;81;20869;-68
2022/03/14 10:22:37;;;;;;;6.08;5.40;;;;;;;18.70;19.93;100926.48;1732161;80;21278;-68
2022/03/14 10:25:09;;;;;;;5.67;5.10;;;;;;;18.34;20.16;100916.45;1743243;81;20956;-65
2022/03/14 10:27:44;;;;;;;11.95;5.90;;;;;;;17.99;20.48;100929.80;1755346;80;21710;-65
2022/03/14 10:30:31;;;;;;;8.65;5.55;;;;;;;17.69;20.76;100924.35;1748596;80;21487;-63
2022/03/14 10:33:12;;;;;;;6.03;5.45;;;;;;;17.49;20.89;100931.22;1753406;80;21006;-64
2022/03/14 10:35:43;;;;;;;5.92;5.33;;;;;;;17.18;21.19;100925.05;1743465;80;21421;-65
2022/03/14 10:38:14;;;;;;;5.95;5.35;;;;;;;16.77;21.50;100927.12;1764097;80;21545;-65
2022/03/14 10:40:45;;;;;;;7.67;5.15;;;;;;;16.44;21.83;100925.55;1754183;80;20959;-65
2022/03/14 10:43:28;;;;;;;8.60;6.20;;;;;;;16.02;22.24;100921.30;1757330;80;20948;-67
2022/03/14 10:45:56;;;;;;;6.72;5.30;;;;;;;15.71;22.62;100929.73;1747638;80;21439;-65
2022/03/14 10:48:41;;;;;;;6.17;5.58;;;;;;;15.34;23.01;100928.00;1755874;80;21283;-66
2022/03/14 10:51:10;;;;;;;7.17;5.58;;;;;;;15.08;23.32;100926.79;1762482;80;21438;-65
2022/03/14 10:53:46;;;;;;;9.70;6.37;;;;;;;14.96;23.54;100932.13;1759195;80;21054;-67
2022/03/14 10:56:14;;;;;;;12.95;6.10;;;;;;;14.83;23.77;100921.86;1770417;80;20895;-65
2022/03/14 10:58:43;;;;;;;8.13;5.35;;;;;;;14.71;23.96;100920.48;1771086;80;20967;-65
2022/03/14 11:01:11;;;;;;;6.08;5.25;;;;;;;14.58;24.02;100911.22;1753123;80;21319;-64
2022/03/14 11:03:40;;;;;;;6.50;5.90;;;;;;;14.48;24.32;100913.20;1749438;80;21059;-64
2022/03/14 11:06:13;;;;;;;6.35;5.75;;;;;;;14.36;24.56;100906.45;1771310;80;21423;-64
2022/03/14 11:08:44;;;;;;;6.53;5.92;;;;;;;14.26;24.74;100901.70;1747408;80;21530;-65
2022/03/14 11:11:16;;;;;;;7.45;5.87;;;;;;;13.99;24.79;100902.70;1747060;80;21035;-67
2022/03/14 11:13:50;;;;;;;9.55;5.72;;;;;;;13.75;25.13;100899.86;1760802;80;20916;-66
2022/03/14 11:16:27;;;;;;;6.87;5.97;;;;;;;13.53;25.41;100900.70;1761478;80;21432;-65
2022/03/14 11:18:54;;;;;;;9.98;5.45;;;;;;;13.37;25.66;100899.75;1746827;80;21522;-63
2022/03/14 11:21:28;;;;;;;7.58;6.28;;;;;;;13.26;25.98;100898.64;1748508;80;20995;-64
2022/03/14 11:23:55;;;;;;;6.92;5.92;;;;;;;13.18;26.08;100899.41;1746294;80;20992;-65
2022/03/14 11:26:24;;;;;;;6.87;5.75;;;;;;;13.16;26.20;100894.72;1748124;80;21243;-63
2022/03/14 11:28:54;;;;;;;7.62;5.62;;;;;;;13.19;26.19;100889.56;1761517;80;21484;-65
2022/03/14 11:31:22;;;;;;;7.42;5.35;;;;;;;13.19;26.35;100889.56;1769969;80;20935;-64
2022/03/14 11:33:49;;;;;;;8.23;6.08;;;;;;;13.17;26.28;100888.36;1772252;80;20995;-64
2022/03/14 11:36:20;;;;;;;6.83;6.22;;;;;;;13.09;26.34;100890.14;1771871;80;20876;-64